createdAt,value
2024-05-09T00:00:18.438Z,92.65
2024-05-09T00:01:13.196Z,92.74
2024-05-09T00:02:13.174Z,92.74
2024-05-09T00:03:13.288Z,92.93
2024-05-09T00:04:13.273Z,93.03
2024-05-09T00:05:13.456Z,92.93
2024-05-09T00:06:13.280Z,92.93
2024-05-09T00:07:13.249Z,93.03
2024-05-09T00:08:13.372Z,92.55
2024-05-09T00:09:13.286Z,92.46
2024-05-09T00:10:22.264Z,92.46
2024-05-09T00:11:13.453Z,92.65
2024-05-09T00:12:13.400Z,92.84
2024-05-09T00:13:13.355Z,92.74
2024-05-09T00:14:13.402Z,92.84
2024-05-09T00:15:13.391Z,92.84
2024-05-09T00:16:13.407Z,92.84
2024-05-09T00:17:13.523Z,92.84
2024-05-09T00:18:13.580Z,92.84
2024-05-09T00:19:13.592Z,93.03
2024-05-09T00:20:20.174Z,92.93
2024-05-09T00:21:13.543Z,92.74
2024-05-09T00:22:13.531Z,92.74
2024-05-09T00:23:13.990Z,92.65
2024-05-09T00:24:13.574Z,92.55
2024-05-09T00:25:13.570Z,92.46
2024-05-09T00:26:13.623Z,92.46
2024-05-09T00:27:13.614Z,92.65
2024-05-09T00:28:13.627Z,92.84
2024-05-09T00:29:13.714Z,92.89
2024-05-09T00:30:20.996Z,93.08
2024-05-09T00:31:13.675Z,93.27
2024-05-09T00:32:13.872Z,93.46
2024-05-09T00:33:13.988Z,93.65
2024-05-09T00:34:13.994Z,93.74
2024-05-09T00:35:13.817Z,93.93
2024-05-09T00:36:13.788Z,94.03
2024-05-09T00:37:13.782Z,93.93
2024-05-09T00:38:13.840Z,93.93
2024-05-09T00:39:13.818Z,93.93
2024-05-09T00:40:22.431Z,93.93
2024-05-09T00:41:15.217Z,93.93
2024-05-09T00:42:13.871Z,93.93
2024-05-09T00:43:14.882Z,94.13
2024-05-09T00:44:13.975Z,94.13
2024-05-09T00:45:13.934Z,94.22
2024-05-09T00:46:13.932Z,94.22
2024-05-09T00:47:14.089Z,94.22
2024-05-09T00:48:16.226Z,94.22
2024-05-09T00:49:14.066Z,94.17
2024-05-09T00:50:19.279Z,94.17
2024-05-09T00:51:14.068Z,94.08
2024-05-09T00:52:14.051Z,94.17
2024-05-09T00:53:14.289Z,94.27
2024-05-09T00:54:14.076Z,94.37
2024-05-09T00:55:14.091Z,94.37
2024-05-09T00:56:14.138Z,94.46
2024-05-09T00:57:14.128Z,94.46
2024-05-09T00:58:14.159Z,94.46
2024-05-09T00:59:14.212Z,94.65
2024-05-09T01:00:22.631Z,95.03
2024-05-09T01:01:14.229Z,95.60
2024-05-09T01:02:14.393Z,95.60
2024-05-09T01:03:14.684Z,95.51
2024-05-09T01:04:14.263Z,95.41
2024-05-09T01:05:14.478Z,95.41
2024-05-09T01:06:14.292Z,95.41
2024-05-09T01:07:14.304Z,95.60
2024-05-09T01:08:14.348Z,95.70
2024-05-09T01:09:14.338Z,95.75
2024-05-09T01:10:21.148Z,95.94
2024-05-09T01:11:14.501Z,96.12
2024-05-09T01:12:14.516Z,96.31
2024-05-09T01:13:14.403Z,96.41
2024-05-09T01:14:14.442Z,96.31
2024-05-09T01:15:14.476Z,96.41
2024-05-09T01:16:14.455Z,96.51
2024-05-09T01:17:14.568Z,96.60
2024-05-09T01:18:14.733Z,96.60
2024-05-09T01:19:14.764Z,96.60
2024-05-09T01:20:20.171Z,96.60
2024-05-09T01:21:14.676Z,96.70
2024-05-09T01:22:14.553Z,96.89
2024-05-09T01:23:16.032Z,96.98
2024-05-09T01:24:14.606Z,97.17
2024-05-09T01:25:14.608Z,97.65
2024-05-09T01:26:14.648Z,97.65
2024-05-09T01:27:14.642Z,97.84
2024-05-09T01:28:14.657Z,97.84
2024-05-09T01:29:14.723Z,98.03
2024-05-09T01:30:17.462Z,98.32
2024-05-09T01:31:14.710Z,98.50
2024-05-09T01:32:14.774Z,98.60
2024-05-09T01:33:14.965Z,98.60
2024-05-09T01:34:14.775Z,98.60
2024-05-09T01:35:14.823Z,98.50
2024-05-09T01:36:14.796Z,98.50
2024-05-09T01:37:14.812Z,98.50
2024-05-09T01:38:14.847Z,98.50
2024-05-09T01:39:14.854Z,98.69
2024-05-09T01:40:18.659Z,98.98
2024-05-09T01:41:14.886Z,99.08
2024-05-09T01:42:14.890Z,99.08
2024-05-09T01:43:14.906Z,99.08
2024-05-09T01:44:14.928Z,98.98
2024-05-09T01:45:14.942Z,98.88
2024-05-09T01:46:14.963Z,98.88
2024-05-09T01:47:15.026Z,98.98
2024-05-09T01:48:15.134Z,99.08
2024-05-09T01:49:15.153Z,98.98
2024-05-09T01:51:15.056Z,98.98
2024-05-09T01:52:15.058Z,98.98
2024-05-09T01:53:15.473Z,98.93
2024-05-09T01:54:15.094Z,98.93
2024-05-09T01:55:15.108Z,99.12
2024-05-09T01:56:15.134Z,99.12
2024-05-09T01:57:15.144Z,99.22
2024-05-09T01:58:15.178Z,99.22
2024-05-09T01:59:15.211Z,99.79
2024-05-09T02:00:22.164Z,99.98
2024-05-09T02:01:15.273Z,99.88
2024-05-09T02:02:15.351Z,99.79
2024-05-09T02:03:17.296Z,99.79
2024-05-09T02:04:15.357Z,99.88
2024-05-09T02:05:15.350Z,99.88
2024-05-09T02:06:15.336Z,99.88
2024-05-09T02:07:15.305Z,99.79
2024-05-09T02:08:15.650Z,99.88
2024-05-09T02:09:15.343Z,99.88
2024-05-09T02:10:20.422Z,99.98
2024-05-09T02:11:15.421Z,99.79
2024-05-09T02:12:15.568Z,99.69
2024-05-09T02:13:15.558Z,99.60
2024-05-09T02:14:15.472Z,99.69
2024-05-09T02:15:15.441Z,99.60
2024-05-09T02:16:15.472Z,99.69
2024-05-09T02:17:15.660Z,99.98
2024-05-09T02:18:15.634Z,99.99
2024-05-09T02:19:15.630Z,99.99
2024-05-09T02:20:22.606Z,99.99
2024-05-09T02:21:15.589Z,99.99
2024-05-09T02:22:15.550Z,99.99
2024-05-09T02:23:15.742Z,99.99
2024-05-09T02:24:15.590Z,99.99
2024-05-09T02:25:15.609Z,99.99
2024-05-09T02:26:15.665Z,99.99
2024-05-09T02:27:15.641Z,99.99
2024-05-09T02:28:15.647Z,99.99
2024-05-09T02:29:15.741Z,99.99
2024-05-09T02:30:22.803Z,99.99
2024-05-09T02:31:15.694Z,99.99
2024-05-09T02:32:15.777Z,99.99
2024-05-09T02:33:15.854Z,99.99
2024-05-09T02:34:15.859Z,99.99
2024-05-09T02:35:15.796Z,99.99
2024-05-09T02:36:15.769Z,99.99
2024-05-09T02:37:15.792Z,99.99
2024-05-09T02:38:15.861Z,99.99
2024-05-09T02:39:15.822Z,99.99
2024-05-09T02:40:21.624Z,99.99
2024-05-09T02:41:15.927Z,99.99
2024-05-09T02:42:15.870Z,99.99
2024-05-09T02:43:15.886Z,99.99
2024-05-09T02:44:15.946Z,99.99
2024-05-09T02:45:15.918Z,99.99
2024-05-09T02:46:15.935Z,99.99
2024-05-09T02:47:16.121Z,99.99
2024-05-09T02:48:16.210Z,99.99
2024-05-09T02:49:16.078Z,99.99
2024-05-09T02:50:23.025Z,99.99
2024-05-09T02:51:16.056Z,99.99
2024-05-09T02:52:16.036Z,99.99
2024-05-09T02:53:16.118Z,99.99
2024-05-09T02:54:16.061Z,99.99
2024-05-09T02:55:16.096Z,99.99
2024-05-09T02:56:16.124Z,99.99
2024-05-09T02:57:16.110Z,99.99
2024-05-09T02:58:16.136Z,99.99
2024-05-09T02:59:16.185Z,99.99
2024-05-09T03:00:22.574Z,99.99
2024-05-09T03:01:16.266Z,99.99
2024-05-09T03:02:16.298Z,99.99
2024-05-09T03:03:16.403Z,99.99
2024-05-09T03:04:16.339Z,99.99
2024-05-09T03:05:16.349Z,99.99
2024-05-09T03:06:16.251Z,99.99
2024-05-09T03:07:17.246Z,99.99
2024-05-09T03:08:16.352Z,99.99
2024-05-09T03:09:16.292Z,99.99
2024-05-09T03:10:22.276Z,99.99
2024-05-09T03:11:16.416Z,99.99
2024-05-09T03:12:16.442Z,99.99
2024-05-09T03:13:16.604Z,99.99
2024-05-09T03:14:16.432Z,99.99
2024-05-09T03:15:16.384Z,99.99
2024-05-09T03:16:16.401Z,99.99
2024-05-09T03:17:16.480Z,99.99
2024-05-09T03:18:16.543Z,99.99
2024-05-09T03:19:16.527Z,99.99
2024-05-09T03:20:23.341Z,99.99
2024-05-09T03:21:16.560Z,99.99
2024-05-09T03:22:16.508Z,99.99
2024-05-09T03:23:16.713Z,99.99
2024-05-09T03:24:16.527Z,99.99
2024-05-09T03:25:16.537Z,99.99
2024-05-09T03:26:16.639Z,99.99
2024-05-09T03:27:16.568Z,99.99
2024-05-09T03:28:16.584Z,99.99
2024-05-09T03:29:16.622Z,99.99
2024-05-09T03:30:28.832Z,99.99
2024-05-09T03:31:16.650Z,99.99
2024-05-09T03:32:16.720Z,99.99
2024-05-09T03:33:17.737Z,99.99
2024-05-09T03:34:16.734Z,99.99
2024-05-09T03:35:16.762Z,99.99
2024-05-09T03:36:16.710Z,99.99
2024-05-09T03:37:16.716Z,99.99
2024-05-09T03:38:16.906Z,99.99
2024-05-09T03:39:16.749Z,99.99
2024-05-09T03:40:23.362Z,99.99
2024-05-09T03:41:16.831Z,99.99
2024-05-09T03:42:16.791Z,99.99
2024-05-09T03:43:16.818Z,99.99
2024-05-09T03:44:16.885Z,99.99
2024-05-09T03:45:16.845Z,99.99
2024-05-09T03:46:16.854Z,99.99
2024-05-09T03:47:17.055Z,99.99
2024-05-09T03:48:17.409Z,99.99
2024-05-09T03:49:16.977Z,99.99
2024-05-09T03:50:22.759Z,99.99
2024-05-09T03:51:16.970Z,99.99
2024-05-09T03:52:16.939Z,99.99
2024-05-09T03:53:17.018Z,99.99
2024-05-09T03:54:16.978Z,99.99
2024-05-09T03:55:16.986Z,99.99
2024-05-09T03:56:17.049Z,99.99
2024-05-09T03:57:17.019Z,99.99
2024-05-09T03:58:17.029Z,99.99
2024-05-09T03:59:17.099Z,99.99
2024-05-09T04:00:22.563Z,99.99
2024-05-09T04:01:17.154Z,99.99
2024-05-09T04:02:17.152Z,99.99
2024-05-09T04:03:17.305Z,99.99
2024-05-09T04:04:17.158Z,99.99
2024-05-09T04:05:17.214Z,99.99
2024-05-09T04:06:17.152Z,99.99
2024-05-09T04:07:17.164Z,99.99
2024-05-09T04:08:17.230Z,99.99
2024-05-09T04:09:17.196Z,99.99
2024-05-09T04:10:24.166Z,99.99
2024-05-09T04:11:17.404Z,99.99
2024-05-09T04:12:17.347Z,99.99
2024-05-09T04:13:17.258Z,99.99
2024-05-09T04:14:17.292Z,99.99
2024-05-09T04:15:17.296Z,99.99
2024-05-09T04:16:17.308Z,99.99
2024-05-09T04:17:17.373Z,99.99
2024-05-09T04:18:17.424Z,99.99
2024-05-09T04:19:17.532Z,99.99
2024-05-09T04:20:28.696Z,99.99
2024-05-09T04:21:17.390Z,99.99
2024-05-09T04:22:17.396Z,99.99
2024-05-09T04:23:17.426Z,99.99
2024-05-09T04:24:17.432Z,99.99
2024-05-09T04:25:17.447Z,99.99
2024-05-09T04:26:17.492Z,99.99
2024-05-09T04:27:17.482Z,99.99
2024-05-09T04:28:17.490Z,99.99
2024-05-09T04:29:17.559Z,99.99
2024-05-09T04:30:25.566Z,99.99
2024-05-09T04:31:17.540Z,99.99
2024-05-09T04:32:17.584Z,99.99
2024-05-09T04:33:17.780Z,99.99
2024-05-09T04:34:17.684Z,99.99
2024-05-09T04:35:17.661Z,99.99
2024-05-09T04:36:17.607Z,99.99
2024-05-09T04:37:17.620Z,99.99
2024-05-09T04:38:17.682Z,99.99
2024-05-09T04:39:17.665Z,99.99
2024-05-09T04:40:24.403Z,99.99
2024-05-09T04:41:17.689Z,99.99
2024-05-09T04:42:17.697Z,99.99
2024-05-09T04:43:17.708Z,99.99
2024-05-09T04:44:17.754Z,99.99
2024-05-09T04:45:17.736Z,99.99
2024-05-09T04:46:17.750Z,99.99
2024-05-09T04:47:17.936Z,99.99
2024-05-09T04:48:17.964Z,99.99
2024-05-09T04:49:18.100Z,99.99
2024-05-09T04:50:25.359Z,99.99
2024-05-09T04:51:17.871Z,99.99
2024-05-09T04:52:17.859Z,99.99
2024-05-09T04:53:18.140Z,99.99
2024-05-09T04:54:29.845Z,99.99
2024-05-09T04:55:17.887Z,99.99
2024-05-09T04:56:17.951Z,99.99
2024-05-09T04:57:17.927Z,99.99
2024-05-09T04:58:17.942Z,99.99
2024-05-09T04:59:17.976Z,99.99
2024-05-09T05:00:25.718Z,99.99
2024-05-09T05:01:18.048Z,99.99
2024-05-09T05:02:18.111Z,99.99
2024-05-09T05:03:18.382Z,99.99
2024-05-09T05:04:18.261Z,99.99
2024-05-09T05:05:18.125Z,99.99
2024-05-09T05:06:18.057Z,99.99
2024-05-09T05:07:18.072Z,99.99
2024-05-09T05:08:19.137Z,99.99
2024-05-09T05:09:18.112Z,99.99
2024-05-09T05:10:25.203Z,99.99
2024-05-09T05:11:18.237Z,99.99
2024-05-09T05:12:18.288Z,99.99
2024-05-09T05:13:19.019Z,99.99
2024-05-09T05:14:18.214Z,99.99
2024-05-09T05:15:18.200Z,99.99
2024-05-09T05:16:18.214Z,99.99
2024-05-09T05:17:18.390Z,99.99
2024-05-09T05:18:18.677Z,99.99
2024-05-09T05:19:18.447Z,99.99
2024-05-09T05:20:27.146Z,99.99
2024-05-09T05:21:18.407Z,99.99
2024-05-09T05:22:18.312Z,99.99
2024-05-09T05:23:18.431Z,99.99
2024-05-09T05:24:18.342Z,99.99
2024-05-09T05:25:18.359Z,99.99
2024-05-09T05:26:18.405Z,99.99
2024-05-09T05:27:18.386Z,99.99
2024-05-09T05:28:18.422Z,99.99
2024-05-09T05:29:20.638Z,99.99
2024-05-09T05:30:24.832Z,99.99
2024-05-09T05:31:18.477Z,99.99
2024-05-09T05:32:18.619Z,99.99
2024-05-09T05:33:19.221Z,99.99
2024-05-09T05:34:18.500Z,99.99
2024-05-09T05:35:18.530Z,99.99
2024-05-09T05:36:18.530Z,99.99
2024-05-09T05:37:18.547Z,99.99
2024-05-09T05:38:19.111Z,99.99
2024-05-09T05:39:18.580Z,99.99
2024-05-09T05:40:27.900Z,99.99
2024-05-09T05:41:18.670Z,99.99
2024-05-09T05:42:18.636Z,99.99
2024-05-09T05:43:18.658Z,99.99
2024-05-09T05:44:18.694Z,99.99
2024-05-09T05:45:18.679Z,99.99
2024-05-09T05:46:18.703Z,99.99
2024-05-09T05:47:18.751Z,99.99
2024-05-09T05:48:19.057Z,99.99
2024-05-09T05:49:18.848Z,99.99
2024-05-09T05:50:27.302Z,99.99
2024-05-09T05:51:18.942Z,99.99
2024-05-09T05:52:18.799Z,99.99
2024-05-09T05:53:18.882Z,99.99
2024-05-09T05:54:18.838Z,99.99
2024-05-09T05:55:18.852Z,99.99
2024-05-09T05:56:18.942Z,99.99
2024-05-09T05:57:18.888Z,99.99
2024-05-09T05:58:18.904Z,99.99
2024-05-09T05:59:19.059Z,99.99
2024-05-09T06:00:29.140Z,99.99
2024-05-09T06:01:18.994Z,99.99
2024-05-09T06:02:19.355Z,99.99
2024-05-09T06:03:19.027Z,99.99
2024-05-09T06:04:19.052Z,99.99
2024-05-09T06:05:19.070Z,99.99
2024-05-09T06:06:19.039Z,99.99
2024-05-09T06:07:19.059Z,99.99
2024-05-09T06:08:19.156Z,99.99
2024-05-09T06:09:19.127Z,99.99
2024-05-09T06:10:25.214Z,99.99
2024-05-09T06:11:19.304Z,99.99
2024-05-09T06:12:19.205Z,99.99
2024-05-09T06:13:19.166Z,99.99
2024-05-09T06:14:19.209Z,99.99
2024-05-09T06:15:19.203Z,99.99
2024-05-09T06:16:19.219Z,99.99
2024-05-09T06:17:19.364Z,99.99
2024-05-09T06:18:19.662Z,99.99
2024-05-09T06:19:19.556Z,99.99
2024-05-09T06:20:24.031Z,99.56
2024-05-09T06:21:19.612Z,98.51
2024-05-09T06:22:19.328Z,98.03
2024-05-09T06:23:19.381Z,98.03
2024-05-09T06:24:19.373Z,97.89
2024-05-09T06:25:19.396Z,97.80
2024-05-09T06:26:19.468Z,98.03
2024-05-09T06:27:19.432Z,98.03
2024-05-09T06:28:19.439Z,97.80
2024-05-09T06:29:19.530Z,97.61
2024-05-09T06:30:25.446Z,97.37
2024-05-09T06:31:19.498Z,96.89
2024-05-09T06:32:19.772Z,95.79
2024-05-09T06:33:19.788Z,93.98
2024-05-09T06:34:19.718Z,93.35
2024-05-09T06:35:19.638Z,92.88
2024-05-09T06:36:19.603Z,92.06
2024-05-09T06:37:19.620Z,91.49
2024-05-09T06:38:19.703Z,90.48
2024-05-09T06:39:19.665Z,89.62
2024-05-09T06:40:25.617Z,89.18
2024-05-09T06:41:19.737Z,88.61
2024-05-09T06:42:19.746Z,87.50
2024-05-09T06:43:20.136Z,85.39
2024-05-09T06:44:19.791Z,83.33
2024-05-09T06:45:19.807Z,81.79
2024-05-09T06:46:19.828Z,81.26
2024-05-09T06:47:19.915Z,79.05
2024-05-09T06:48:20.464Z,77.42
2024-05-09T06:49:20.175Z,77.04
2024-05-09T06:50:24.032Z,76.50
2024-05-09T06:51:20.007Z,76.21
2024-05-09T06:52:19.965Z,75.96
2024-05-09T06:53:20.036Z,76.34
2024-05-09T06:54:20.014Z,76.29
2024-05-09T06:55:20.036Z,75.23
2024-05-09T06:56:20.102Z,74.79
2024-05-09T06:57:20.087Z,74.21
2024-05-09T06:58:20.111Z,74.11
2024-05-09T06:59:20.169Z,73.57
2024-05-09T07:00:27.476Z,72.23
2024-05-09T07:01:20.241Z,71.84
2024-05-09T07:02:20.320Z,72.13
2024-05-09T07:03:20.432Z,71.78
2024-05-09T07:04:20.310Z,71.30
2024-05-09T07:05:20.392Z,69.47
2024-05-09T07:06:20.323Z,69.47
2024-05-09T07:07:20.344Z,69.60
2024-05-09T07:08:20.427Z,69.51
2024-05-09T07:09:20.396Z,69.41
2024-05-09T07:10:28.480Z,69.64
2024-05-09T07:11:20.544Z,68.58
2024-05-09T07:12:20.493Z,67.03
2024-05-09T07:13:20.505Z,66.65
2024-05-09T07:14:20.545Z,65.56
2024-05-09T07:15:20.546Z,65.69
2024-05-09T07:16:20.568Z,65.56
2024-05-09T07:17:20.760Z,65.40
2024-05-09T07:18:20.970Z,65.78
2024-05-09T07:19:20.731Z,65.69
2024-05-09T07:20:27.885Z,65.88
2024-05-09T07:21:20.729Z,64.73
2024-05-09T07:22:20.722Z,64.53
2024-05-09T07:23:20.834Z,64.63
2024-05-09T07:24:20.786Z,64.92
2024-05-09T07:25:20.812Z,64.73
2024-05-09T07:26:20.871Z,64.63
2024-05-09T07:27:20.856Z,64.43
2024-05-09T07:28:20.878Z,64.18
2024-05-09T07:29:20.980Z,64.56
2024-05-09T07:30:27.526Z,64.28
2024-05-09T07:31:20.958Z,63.41
2024-05-09T07:32:21.134Z,62.80
2024-05-09T07:33:22.637Z,62.90
2024-05-09T07:34:21.152Z,62.70
2024-05-09T07:35:21.080Z,62.90
2024-05-09T07:36:21.104Z,63.18
2024-05-09T07:37:21.122Z,63.31
2024-05-09T07:38:21.237Z,61.83
2024-05-09T07:39:21.183Z,61.55
2024-05-09T07:40:28.335Z,61.83
2024-05-09T07:41:21.241Z,62.12
2024-05-09T07:42:21.249Z,62.12
2024-05-09T07:43:21.276Z,62.19
2024-05-09T07:44:21.436Z,62.09
2024-05-09T07:45:40.144Z,62.09
2024-05-09T07:47:14.170Z,62.48
2024-05-09T07:53:30.471Z,62.41
2024-05-09T07:53:38.891Z,62.80
2024-05-09T07:54:21.723Z,62.83
2024-05-09T07:55:21.766Z,62.83
2024-05-09T07:56:23.327Z,62.73
2024-05-09T07:57:21.713Z,62.73
2024-05-09T07:58:21.684Z,62.73
2024-05-09T07:59:21.712Z,62.76
2024-05-09T08:00:29.612Z,62.57
2024-05-09T08:01:21.862Z,62.66
2024-05-09T08:02:21.938Z,62.28
2024-05-09T08:03:21.968Z,62.18
2024-05-09T08:04:22.967Z,61.90
2024-05-09T08:05:21.913Z,61.48
2024-05-09T08:06:21.901Z,61.38
2024-05-09T08:07:21.971Z,61.29
2024-05-09T08:08:21.958Z,61.58
2024-05-09T08:09:22.032Z,61.38
2024-05-09T08:10:27.145Z,61.38
2024-05-09T08:11:22.063Z,61.58
2024-05-09T08:12:22.070Z,61.87
2024-05-09T08:13:22.220Z,61.58
2024-05-09T08:14:22.122Z,61.77
2024-05-09T08:15:22.155Z,61.16
2024-05-09T08:16:22.389Z,61.35
2024-05-09T08:17:22.281Z,61.25
2024-05-09T08:18:22.345Z,61.45
2024-05-09T08:19:22.330Z,62.12
2024-05-09T08:20:30.300Z,62.32
2024-05-09T08:21:22.315Z,62.41
2024-05-09T08:22:22.339Z,62.67
2024-05-09T08:23:22.368Z,62.57
2024-05-09T08:24:22.407Z,62.57
2024-05-09T08:25:22.481Z,62.45
2024-05-09T08:26:22.490Z,62.64
2024-05-09T08:27:22.478Z,62.83
2024-05-09T08:28:22.698Z,63.12
2024-05-09T08:29:22.538Z,63.51
2024-05-09T08:30:29.714Z,63.57
2024-05-09T08:31:22.788Z,63.76
2024-05-09T08:32:22.671Z,64.05
2024-05-09T08:33:22.817Z,63.95
2024-05-09T08:34:22.863Z,63.92
2024-05-09T08:35:22.700Z,64.12
2024-05-09T08:36:22.712Z,64.02
2024-05-09T08:37:26.004Z,64.02
2024-05-09T08:38:22.768Z,63.92
2024-05-09T08:39:22.794Z,64.02
2024-05-09T08:40:30.688Z,64.40
2024-05-09T08:41:22.847Z,64.37
2024-05-09T08:42:22.874Z,64.18
2024-05-09T08:43:23.228Z,64.47
2024-05-09T08:44:22.956Z,64.76
2024-05-09T08:45:22.946Z,65.43
2024-05-09T08:46:23.162Z,65.23
2024-05-09T08:47:23.156Z,65.23
2024-05-09T08:48:23.314Z,65.53
2024-05-09T08:49:23.175Z,65.97
2024-05-09T08:50:31.863Z,65.20
2024-05-09T08:51:23.122Z,65.30
2024-05-09T08:52:23.136Z,65.59
2024-05-09T08:53:23.358Z,65.69
2024-05-09T08:54:23.204Z,65.78
2024-05-09T08:55:23.212Z,65.97
2024-05-09T08:56:23.239Z,66.07
2024-05-09T08:57:23.257Z,66.55
2024-05-09T08:58:23.299Z,65.56
2024-05-09T08:59:23.310Z,65.08
2024-05-09T09:00:33.423Z,65.75
2024-05-09T09:01:23.427Z,65.94
2024-05-09T09:02:23.518Z,65.65
2024-05-09T09:03:23.440Z,65.65
2024-05-09T09:04:23.539Z,66.03
2024-05-09T09:05:23.563Z,66.13
2024-05-09T09:06:23.476Z,65.75
2024-05-09T09:07:23.613Z,65.65
2024-05-09T09:08:23.536Z,65.46
2024-05-09T09:09:23.571Z,65.65
2024-05-09T09:10:29.542Z,65.27
2024-05-09T09:11:23.649Z,65.30
2024-05-09T09:12:23.644Z,65.30
2024-05-09T09:13:23.693Z,65.69
2024-05-09T09:14:23.689Z,65.30
2024-05-09T09:15:23.753Z,65.20
2024-05-09T09:16:23.792Z,65.49
2024-05-09T09:17:23.834Z,65.40
2024-05-09T09:18:23.901Z,65.59
2024-05-09T09:19:24.086Z,65.97
2024-05-09T09:20:29.394Z,65.11
2024-05-09T09:21:23.865Z,64.82
2024-05-09T09:22:23.890Z,64.92
2024-05-09T09:23:23.916Z,64.82
2024-05-09T09:24:23.943Z,64.25
2024-05-09T09:25:24.059Z,63.19
2024-05-09T09:26:23.993Z,63.19
2024-05-09T09:27:24.016Z,63.19
2024-05-09T09:28:24.071Z,62.84
2024-05-09T09:29:24.074Z,62.93
2024-05-09T09:30:34.555Z,62.64
2024-05-09T09:31:24.172Z,62.55
2024-05-09T09:32:24.176Z,62.55
2024-05-09T09:33:24.257Z,62.64
2024-05-09T09:34:24.404Z,63.12
2024-05-09T09:35:24.228Z,63.22
2024-05-09T09:36:24.257Z,62.55
2024-05-09T09:37:24.298Z,62.19
2024-05-09T09:38:24.318Z,62.10
2024-05-09T09:39:24.339Z,62.10
2024-05-09T09:41:24.393Z,61.81
2024-05-09T09:42:24.423Z,61.91
2024-05-09T09:43:24.487Z,62.00
2024-05-09T09:44:24.473Z,62.10
2024-05-09T09:45:24.514Z,62.23
2024-05-09T09:46:24.673Z,62.51
2024-05-09T09:47:24.596Z,62.41
2024-05-09T09:48:24.623Z,62.32
2024-05-09T09:49:24.697Z,61.36
2024-05-09T09:50:31.759Z,60.78
2024-05-09T09:51:24.678Z,61.00
2024-05-09T09:52:24.770Z,61.10
2024-05-09T09:53:24.730Z,61.19
2024-05-09T09:54:24.765Z,61.22
2024-05-09T09:55:24.864Z,61.13
2024-05-09T09:56:24.815Z,61.25
2024-05-09T09:57:24.853Z,61.07
2024-05-09T09:58:25.085Z,60.68
2024-05-09T09:59:24.906Z,60.52
2024-05-09T10:00:30.563Z,60.23
2024-05-09T10:01:25.033Z,59.55
2024-05-09T10:02:25.538Z,59.30
2024-05-09T10:03:25.108Z,58.81
2024-05-09T10:04:25.137Z,58.52
2024-05-09T10:05:25.392Z,58.72
2024-05-09T10:06:25.120Z,58.84
2024-05-09T10:07:25.137Z,58.45
2024-05-09T10:08:25.188Z,58.45
2024-05-09T10:09:25.205Z,57.68
2024-05-09T10:10:31.482Z,57.32
2024-05-09T10:11:25.378Z,57.14
2024-05-09T10:12:25.333Z,57.16
2024-05-09T10:13:25.487Z,56.10
2024-05-09T10:14:25.355Z,55.26
2024-05-09T10:15:25.383Z,55.35
2024-05-09T10:16:25.624Z,55.26
2024-05-09T10:17:25.559Z,55.67
2024-05-09T10:18:27.836Z,55.70
2024-05-09T10:19:25.646Z,55.41
2024-05-09T10:20:30.805Z,55.24
2024-05-09T10:21:25.580Z,55.15
2024-05-09T10:22:25.679Z,54.69
2024-05-09T10:23:25.663Z,54.30
2024-05-09T10:24:25.677Z,53.17
2024-05-09T10:25:25.754Z,52.20
2024-05-09T10:26:25.746Z,51.81
2024-05-09T10:27:25.779Z,51.06
2024-05-09T10:28:25.811Z,50.77
2024-05-09T10:29:25.855Z,50.41
2024-05-09T10:30:33.439Z,49.44
2024-05-09T10:31:25.992Z,48.85
2024-05-09T10:32:26.007Z,48.88
2024-05-09T10:33:26.077Z,48.59
2024-05-09T10:34:26.520Z,48.69
2024-05-09T10:35:26.043Z,48.90
2024-05-09T10:36:26.137Z,48.61
2024-05-09T10:37:26.185Z,48.32
2024-05-09T10:38:26.149Z,48.54
2024-05-09T10:39:26.189Z,48.15
2024-05-09T10:40:31.108Z,47.40
2024-05-09T10:41:26.261Z,47.78
2024-05-09T10:42:26.292Z,48.47
2024-05-09T10:43:26.351Z,48.30
2024-05-09T10:44:26.357Z,45.97
2024-05-09T10:45:26.394Z,45.50
2024-05-09T10:46:26.467Z,45.89
2024-05-09T10:47:26.564Z,46.67
2024-05-09T10:48:26.563Z,0.00
2024-05-09T10:49:26.650Z,46.40
2024-05-09T10:50:29.226Z,45.72
2024-05-09T10:51:26.600Z,45.45
2024-05-09T10:52:26.673Z,44.38
2024-05-09T10:53:26.675Z,44.48
2024-05-09T10:54:26.715Z,43.79
2024-05-09T10:55:26.777Z,43.40
2024-05-09T10:56:26.808Z,43.50
2024-05-09T10:57:26.817Z,43.60
2024-05-09T10:58:26.843Z,43.87
2024-05-09T10:59:26.884Z,44.26
2024-05-09T11:00:33.155Z,44.65
2024-05-09T11:01:27.007Z,44.96
2024-05-09T11:02:27.075Z,45.35
2024-05-09T11:03:27.130Z,44.49
2024-05-09T11:04:27.159Z,43.93
2024-05-09T11:05:27.374Z,43.74
2024-05-09T11:06:27.173Z,43.37
2024-05-09T11:07:27.223Z,42.30
2024-05-09T11:08:27.214Z,42.59
2024-05-09T11:09:27.250Z,42.59
2024-05-09T11:10:31.905Z,42.30
2024-05-09T11:11:27.356Z,42.69
2024-05-09T11:12:27.350Z,42.79
2024-05-09T11:13:27.384Z,42.90
2024-05-09T11:14:27.416Z,42.41
2024-05-09T11:15:27.447Z,41.63
2024-05-09T11:16:27.535Z,42.02
2024-05-09T11:17:27.678Z,42.51
2024-05-09T11:18:29.762Z,42.24
2024-05-09T11:19:27.723Z,40.39
2024-05-09T11:20:29.919Z,40.47
2024-05-09T11:21:27.717Z,40.95
2024-05-09T11:22:27.736Z,41.15
2024-05-09T11:23:27.783Z,0.00
2024-05-09T11:24:27.823Z,40.00
2024-05-09T11:25:27.800Z,38.92
2024-05-09T11:26:27.835Z,0.00
2024-05-09T11:27:27.941Z,38.94
2024-05-09T11:28:27.919Z,39.23
2024-05-09T11:29:27.950Z,0.00
2024-05-09T11:30:31.859Z,39.45
2024-05-09T11:31:28.086Z,39.57
2024-05-09T11:32:28.235Z,38.81
2024-05-09T11:33:28.179Z,38.71
2024-05-09T11:34:28.215Z,39.10
2024-05-09T11:35:28.163Z,39.31
2024-05-09T11:36:28.245Z,39.12
2024-05-09T11:37:28.278Z,39.33
2024-05-09T11:38:28.282Z,39.15
2024-05-09T11:39:28.383Z,38.47
2024-05-09T11:40:33.962Z,38.08
2024-05-09T11:41:28.379Z,38.10
2024-05-09T11:42:28.433Z,38.00
2024-05-09T11:43:28.556Z,38.00
2024-05-09T11:44:28.496Z,37.90
2024-05-09T11:45:28.584Z,37.82
2024-05-09T11:46:28.631Z,37.52
2024-05-09T11:47:28.753Z,37.92
2024-05-09T11:48:28.901Z,38.13
2024-05-09T11:49:28.797Z,38.41
2024-05-09T11:50:32.880Z,37.04
2024-05-09T11:51:28.806Z,36.35
2024-05-09T11:52:28.791Z,36.45
2024-05-09T11:53:28.836Z,36.72
2024-05-09T11:54:28.950Z,37.02
2024-05-09T11:55:28.944Z,0.00
2024-05-09T11:56:28.934Z,36.61
2024-05-09T11:57:29.001Z,36.02
2024-05-09T11:58:29.064Z,36.22
2024-05-09T11:59:29.049Z,36.49
2024-05-09T12:00:36.094Z,36.69
2024-05-09T12:01:29.292Z,36.98
2024-05-09T12:02:29.251Z,37.18
2024-05-09T12:03:29.306Z,0.00
2024-05-09T12:04:29.361Z,36.41
2024-05-09T12:05:29.471Z,36.80
2024-05-09T12:06:29.361Z,37.00
2024-05-09T12:07:29.367Z,36.51
2024-05-09T12:08:29.376Z,36.51
2024-05-09T12:09:29.432Z,36.43
2024-05-09T12:10:33.719Z,36.51
2024-05-09T12:11:29.549Z,36.32
2024-05-09T12:12:29.557Z,36.22
2024-05-09T12:13:29.594Z,36.53
2024-05-09T12:14:29.603Z,36.24
2024-05-09T12:15:29.658Z,36.12
2024-05-09T12:16:29.872Z,36.02
2024-05-09T12:17:29.774Z,36.33
2024-05-09T12:18:29.811Z,36.53
2024-05-09T12:19:29.858Z,36.24
2024-05-09T12:20:36.201Z,36.33
2024-05-09T12:21:29.911Z,36.33
2024-05-09T12:22:29.895Z,36.24
2024-05-09T12:23:29.929Z,35.86
2024-05-09T12:24:30.011Z,35.96
2024-05-09T12:25:30.003Z,36.25
2024-05-09T12:26:30.037Z,0.00
2024-05-09T12:27:30.090Z,0.00
2024-05-09T12:28:30.167Z,0.00
2024-05-09T12:29:30.156Z,0.00
2024-05-09T12:30:36.415Z,0.00
2024-05-09T12:31:30.377Z,0.00
2024-05-09T12:32:30.306Z,0.00
2024-05-09T12:33:30.387Z,0.00
2024-05-09T12:34:30.375Z,36.88
2024-05-09T12:35:30.380Z,36.58
2024-05-09T12:36:30.443Z,36.58
2024-05-09T12:37:30.453Z,36.68
2024-05-09T12:38:30.500Z,36.49
2024-05-09T12:39:30.563Z,0.00
2024-05-09T12:40:36.294Z,36.58
2024-05-09T12:41:30.598Z,36.78
2024-05-09T12:42:32.536Z,1.57
2024-05-09T12:43:30.817Z,36.11
2024-05-09T12:44:30.710Z,36.11
2024-05-09T12:45:30.868Z,0.00
2024-05-09T12:46:30.874Z,0.00
2024-05-09T12:47:30.933Z,35.78
2024-05-09T12:48:30.967Z,36.27
2024-05-09T12:49:31.027Z,36.27
2024-05-09T12:50:33.355Z,36.08
2024-05-09T12:51:31.048Z,0.78
2024-05-09T12:52:31.008Z,36.18
2024-05-09T12:53:31.048Z,36.27
2024-05-09T12:54:31.135Z,36.37
2024-05-09T12:55:37.248Z,36.57
2024-05-09T12:56:31.194Z,36.58
2024-05-09T12:57:31.242Z,36.39
2024-05-09T12:58:31.248Z,36.29
2024-05-09T12:59:31.281Z,36.19
2024-05-09T13:00:34.018Z,0.00